Time;durP1;ratioP1;P1;durP2;ratioP2;P2;SDS_P1;SDS_P2;PMS_P1;PMS_P2;Temp;Humidity;BMP_temperature;BMP_pressure;BME280_temperature;BME280_humidity;BME280_pressure;Samples;Min_cycle;Max_cycle;Signal;HPM_P1;HPM_P2
2022/08/11 00:00:59;;;;;;;;;;;19.90;57.60;;;;;;5089245;28;19908;-82
2022/08/11 00:03:25;;;;;;;;;;;19.80;57.60;;;;;;5089357;28;19908;-82
2022/08/11 00:05:52;;;;;;;;;;;19.90;57.60;;;;;;5089558;28;19916;-82
2022/08/11 00:08:24;;;;;;;;;;;19.80;57.50;;;;;;5088437;28;20354;-82
2022/08/11 00:10:51;;;;;;;;;;;19.80;57.50;;;;;;5070381;28;19927;-82
2022/08/11 00:13:17;;;;;;;;;;;19.70;57.60;;;;;;5089337;28;19912;-82
2022/08/11 00:15:44;;;;;;;;;;;19.70;57.70;;;;;;5087927;28;20006;-82
2022/08/11 00:18:11;;;;;;;;;;;19.60;57.60;;;;;;5088001;28;19913;-82
2022/08/11 00:20:42;;;;;;;;;;;19.60;57.60;;;;;;5087843;28;20002;-82
2022/08/11 00:23:10;;;;;;;;;;;19.60;57.50;;;;;;5088055;28;19908;-82
2022/08/11 00:25:37;;;;;;;;;;;19.50;57.60;;;;;;5089058;28;20326;-82
2022/08/11 00:28:02;;;;;;;;;;;19.40;57.70;;;;;;5087567;28;19912;-82
2022/08/11 00:30:37;;;;;;;;;;;19.40;57.70;;;;;;5088897;28;20291;-82
2022/08/11 00:33:03;;;;;;;;;;;19.40;57.60;;;;;;5089023;28;19996;-82
2022/08/11 00:35:31;;;;;;;;;;;19.40;57.60;;;;;;5087562;28;19912;-82
2022/08/11 00:37:58;;;;;;;;;;;19.30;57.60;;;;;;5088855;28;19934;-82
2022/08/11 00:40:28;;;;;;;;;;;19.20;57.70;;;;;;5087182;28;19930;-82
2022/08/11 00:43:00;;;;;;;;;;;19.10;57.90;;;;;;5088867;28;19912;-82
2022/08/11 00:45:28;;;;;;;;;;;19.20;57.90;;;;;;5088741;28;20516;-82
2022/08/11 00:48:02;;;;;;;;;;;19.20;58.40;;;;;;5088591;28;20303;-82
2022/08/11 00:50:35;;;;;;;;;;;19.20;57.80;;;;;;5088538;28;20376;-82
2022/08/11 00:53:25;;;;;;;;;;;19.20;57.80;;;;;;5087187;28;19908;-82
2022/08/11 00:56:05;;;;;;;;;;;19.20;57.70;;;;;;5087144;28;19912;-82
2022/08/11 00:58:37;;;;;;;;;;;19.20;57.60;;;;;;5087152;28;19919;-82
2022/08/11 01:01:12;;;;;;;;;;;19.20;57.60;;;;;;5088507;28;19912;-82
2022/08/11 01:03:56;;;;;;;;;;;19.10;57.50;;;;;;5087294;28;19915;-82
2022/08/11 01:06:37;;;;;;;;;;;19.10;57.70;;;;;;5088256;28;19915;-82
2022/08/11 01:09:06;;;;;;;;;;;19.10;57.80;;;;;;5088399;28;19919;-82
2022/08/11 01:11:40;;;;;;;;;;;19.10;57.70;;;;;;5087592;28;20312;-82
2022/08/11 01:14:24;;;;;;;;;;;19.00;57.60;;;;;;5086963;28;19916;-82
2022/08/11 01:17:04;;;;;;;;;;;19.00;57.60;;;;;;5088323;28;19912;-82
2022/08/11 01:19:36;;;;;;;;;;;18.90;57.70;;;;;;5088235;28;19986;-82
2022/08/11 01:22:04;;;;;;;;;;;18.70;57.80;;;;;;5088411;28;20000;-82
2022/08/11 01:24:42;;;;;;;;;;;18.70;58.10;;;;;;5086866;28;20186;-82
2022/08/11 01:27:13;;;;;;;;;;;18.70;58.00;;;;;;5088129;28;20363;-82
2022/08/11 01:30:07;;;;;;;;;;;18.80;57.90;;;;;;5088183;28;20344;-82
2022/08/11 01:32:51;;;;;;;;;;;18.80;57.80;;;;;;5088004;28;19908;-82
2022/08/11 01:35:19;;;;;;;;;;;18.70;57.60;;;;;;5086734;28;19921;-82
2022/08/11 01:38:04;;;;;;;;;;;18.50;57.80;;;;;;5088024;28;20360;-82
2022/08/11 01:40:51;;;;;;;;;;;18.40;58.00;;;;;;5086522;28;19926;-82
2022/08/11 01:46:25;;;;;;;;;;;18.40;58.00;;;;;;5087882;28;20447;-82
2022/08/11 01:48:57;;;;;;;;;;;18.40;58.00;;;;;;5088288;28;19958;-82
2022/08/11 01:51:45;;;;;;;;;;;18.40;57.90;;;;;;5086542;28;19908;-82
2022/08/11 01:54:18;;;;;;;;;;;18.50;57.90;;;;;;5088104;28;19933;-82
2022/08/11 01:57:02;;;;;;;;;;;18.40;57.70;;;;;;5086388;28;19920;-82
2022/08/11 01:59:34;;;;;;;;;;;18.40;57.70;;;;;;5086430;28;19995;-82
2022/08/11 02:01:59;;;;;;;;;;;18.40;57.80;;;;;;5086368;28;19915;-82
2022/08/11 02:04:25;;;;;;;;;;;18.30;57.90;;;;;;5086404;28;20010;-82
2022/08/11 02:07:01;;;;;;;;;;;18.30;57.90;;;;;;5086257;28;19940;-82
2022/08/11 02:09:46;;;;;;;;;;;18.30;57.80;;;;;;5086325;28;19912;-82
2022/08/11 02:12:35;;;;;;;;;;;18.30;57.80;;;;;;5087749;28;19958;-82
2022/08/11 02:15:03;;;;;;;;;;;18.30;57.70;;;;;;5080574;28;20280;-82
2022/08/11 02:17:40;;;;;;;;;;;18.30;58.20;;;;;;5086393;28;19915;-82
2022/08/11 02:26:00;;;;;;;;;;;18.20;57.90;;;;;;5087714;28;19924;-82
2022/08/11 02:28:27;;;;;;;;;;;18.10;57.80;;;;;;5087402;28;19908;-82
2022/08/11 02:33:21;;;;;;;;;;;18.10;57.80;;;;;;5086316;28;20303;-82
2022/08/11 02:33:47;;;;;;;;;;;18.10;57.80;;;;;;5089864;28;20145;-82
2022/08/11 02:36:20;;;;;;;;;;;18.10;57.80;;;;;;5089839;28;19995;-82
2022/08/11 02:39:04;;;;;;;;;;;18.10;57.70;;;;;;5091219;28;19908;-82
2022/08/11 02:44:35;;;;;;;;;;;18.00;57.50;;;;;;5091259;28;19962;-82
2022/08/11 02:47:13;;;;;;;;;;;18.00;57.60;;;;;;5089588;28;19913;-82
2022/08/11 02:49:57;;;;;;;;;;;17.90;57.70;;;;;;5090981;28;19916;-82
2022/08/11 02:52:23;;;;;;;;;;;17.90;57.70;;;;;;5089602;28;19915;-82
2022/08/11 02:54:51;;;;;;;;;;;17.80;57.80;;;;;;5089661;28;20253;-81
2022/08/11 02:57:20;;;;;;;;;;;17.80;57.80;;;;;;5090909;28;19940;-82
2022/08/11 03:00:06;;;;;;;;;;;17.80;57.80;;;;;;5090818;28;19962;-82
2022/08/11 03:02:40;;;;;;;;;;;17.80;57.90;;;;;;5090620;28;19965;-82
2022/08/11 03:05:10;;;;;;;;;;;17.80;57.90;;;;;;5089415;28;20006;-82
2022/08/11 03:07:39;;;;;;;;;;;17.80;57.80;;;;;;5090914;28;19965;-82
2022/08/11 03:10:23;;;;;;;;;;;17.70;57.80;;;;;;5089394;28;19958;-82
2022/08/11 03:18:55;;;;;;;;;;;17.40;58.10;;;;;;5055848;28;20283;-82
2022/08/11 03:21:27;;;;;;;;;;;17.40;58.00;;;;;;5090682;28;19912;-82
2022/08/11 03:24:07;;;;;;;;;;;17.40;58.00;;;;;;5089068;28;19923;-82
2022/08/11 03:26:46;;;;;;;;;;;17.40;57.90;;;;;;5089097;28;19931;-82
2022/08/11 03:29:19;;;;;;;;;;;17.50;57.90;;;;;;5090008;28;19916;-82
2022/08/11 03:32:17;;;;;;;;;;;17.40;57.90;;;;;;5090433;28;19919;-82
2022/08/11 03:34:44;;;;;;;;;;;17.30;58.10;;;;;;5066264;28;20310;-82
2022/08/11 03:43:15;;;;;;;;;;;17.30;58.20;;;;;;5090067;28;20061;-82
2022/08/11 03:46:01;;;;;;;;;;;17.30;58.10;;;;;;5087289;28;19909;-82
2022/08/11 03:48:40;;;;;;;;;;;17.40;58.10;;;;;;5088621;28;20264;-82
2022/08/11 03:51:06;;;;;;;;;;;17.40;58.00;;;;;;5088503;28;19919;-82
2022/08/11 03:53:41;;;;;;;;;;;17.50;58.60;;;;;;5088524;28;19939;-82
2022/08/11 03:56:19;;;;;;;;;;;17.50;58.00;;;;;;5088557;28;19910;-81
2022/08/11 03:58:56;;;;;;;;;;;17.40;57.90;;;;;;5089671;28;19916;-81
2022/08/11 04:01:41;;;;;;;;;;;17.40;57.90;;;;;;5088279;28;19951;-81
2022/08/11 04:04:29;;;;;;;;;;;17.30;57.80;;;;;;5089865;28;19908;-82
2022/08/11 04:06:55;;;;;;;;;;;17.30;57.70;;;;;;5068866;28;20003;-82
2022/08/11 04:09:33;;;;;;;;;;;17.20;57.80;;;;;;5087984;28;20003;-81
2022/08/11 04:12:20;;;;;;;;;;;17.20;57.90;;;;;;5089416;28;19995;-82
2022/08/11 04:17:49;;;;;;;;;;;17.10;57.90;;;;;;5089493;28;19938;-82
2022/08/11 04:20:33;;;;;;;;;;;17.10;57.90;;;;;;5087832;28;20002;-82
2022/08/11 04:23:02;;;;;;;;;;;17.00;58.00;;;;;;5089206;28;19916;-82
2022/08/11 04:25:32;;;;;;;;;;;17.00;58.00;;;;;;5087694;28;20376;-82
2022/08/11 04:28:16;;;;;;;;;;;17.00;57.90;;;;;;5087872;28;19914;-82
2022/08/11 04:30:48;;;;;;;;;;;17.00;58.00;;;;;;5087609;28;19958;-82
2022/08/11 04:33:46;;;;;;;;;;;17.00;58.00;;;;;;5087876;28;19915;-82
2022/08/11 04:39:55;;;;;;;;;;;17.00;58.10;;;;;;5026162;28;19928;-82
2022/08/11 04:45:33;;;;;;;;;;;16.90;57.90;;;;;;5074378;28;19915;-82
2022/08/11 05:02:47;;;;;;;;;;;16.80;57.90;;;;;;5082808;28;20296;-82
2022/08/11 05:05:30;;;;;;;;;;;16.70;57.80;;;;;;5087061;28;19915;-82
2022/08/11 05:07:59;;;;;;;;;;;16.70;57.90;;;;;;5088459;28;19912;-82
2022/08/11 05:10:24;;;;;;;;;;;16.70;58.00;;;;;;5088336;28;19961;-81
2022/08/11 05:35:37;;;;;;;;;;;16.80;57.80;;;;;;5088330;28;19946;-82
2022/08/11 05:57:25;;;;;;;;;;;17.00;57.60;;;;;;5088100;28;19965;-80
2022/08/11 05:59:57;;;;;;;;;;;17.10;57.60;;;;;;5086163;28;19908;-81
2022/08/11 06:02:23;;;;;;;;;;;17.10;57.60;;;;;;5086710;28;20349;-82
2022/08/11 06:04:55;;;;;;;;;;;17.10;57.70;;;;;;5086768;28;19919;-82
2022/08/11 06:07:25;;;;;;;;;;;17.20;57.70;;;;;;5088133;28;19908;-82
2022/08/11 06:09:51;;;;;;;;;;;17.20;57.60;;;;;;5091145;28;20253;-82
2022/08/11 06:12:25;;;;;;;;;;;17.30;57.60;;;;;;5091576;28;19912;-82
2022/08/11 06:14:53;;;;;;;;;;;17.30;57.50;;;;;;5091567;28;20094;-82
2022/08/11 06:17:22;;;;;;;;;;;17.30;57.70;;;;;;5091783;28;19912;-80
2022/08/11 06:19:48;;;;;;;;;;;17.40;57.80;;;;;;5090771;28;19912;-82
2022/08/11 06:22:19;;;;;;;;;;;17.50;57.80;;;;;;5090567;28;19916;-82
2022/08/11 06:24:50;;;;;;;;;;;17.60;57.70;;;;;;5090751;28;19908;-81
2022/08/11 06:27:20;;;;;;;;;;;17.70;57.70;;;;;;5091130;28;19918;-82
2022/08/11 06:29:49;;;;;;;;;;;17.90;58.00;;;;;;5090559;28;19923;-76
2022/08/11 06:32:15;;;;;;;;;;;18.50;58.40;;;;;;5090407;28;20322;-81
2022/08/11 06:34:54;;;;;;;;;;;19.70;58.40;;;;;;5073910;28;19916;-77
2022/08/11 06:37:41;;;;;;;;;;;20.70;56.50;;;;;;5092101;28;19939;-82
2022/08/11 06:40:06;;;;;;;;;;;20.80;55.60;;;;;;5091244;28;20367;-82
2022/08/11 06:42:35;;;;;;;;;;;20.50;55.60;;;;;;5090020;28;19947;-80
2022/08/11 06:45:19;;;;;;;;;;;20.20;55.90;;;;;;5091778;28;19995;-83
2022/08/11 06:47:48;;;;;;;;;;;19.90;56.30;;;;;;5091202;28;19955;-82
2022/08/11 06:53:09;;;;;;;;;;;19.40;56.90;;;;;;5091352;28;20330;-81
2022/08/11 07:01:12;;;;;;;;;;;19.20;57.40;;;;;;5091476;28;19935;-81
2022/08/11 07:03:45;;;;;;;;;;;19.20;57.50;;;;;;5090915;28;20182;-81
2022/08/11 07:06:14;;;;;;;;;;;19.20;57.50;;;;;;5089355;28;19916;-81
2022/08/11 07:17:21;;;;;;;;;;;19.40;57.60;;;;;;5089901;28;19944;-81
2022/08/11 07:30:57;;;;;;;;;;;25.00;55.30;;;;;;5089991;28;19927;-81
2022/08/11 07:33:29;;;;;;;;;;;25.10;55.30;;;;;;5088774;28;19908;-82
2022/08/11 07:35:56;;;;;;;;;;;25.10;55.80;;;;;;5088626;28;19948;-82
2022/08/11 07:38:23;;;;;;;;;;;25.40;56.40;;;;;;5088613;28;19915;-82
2022/08/11 07:40:49;;;;;;;;;;;26.50;57.20;;;;;;5091334;28;19920;-82
2022/08/11 07:43:15;;;;;;;;;;;28.00;57.10;;;;;;5091637;28;19916;-82
2022/08/11 07:53:56;;;;;;;;;;;32.20;56.80;;;;;;5089812;28;20029;-83
2022/08/11 07:56:22;;;;;;;;;;;33.00;56.90;;;;;;5089982;28;20390;-82
2022/08/11 08:18:02;;;;;;;;;;;37.30;56.80;;;;;;5089360;28;19919;-83
2022/08/11 08:20:36;;;;;;;;;;;37.80;56.90;;;;;;5089913;28;19916;-82
2022/08/11 08:23:03;;;;;;;;;;;38.00;56.80;;;;;;5087741;28;19915;-83
2022/08/11 08:25:33;;;;;;;;;;;38.10;57.30;;;;;;5088505;28;19935;-83
2022/08/11 08:27:59;;;;;;;;;;;38.20;57.50;;;;;;5090416;28;20026;-83
2022/08/11 08:33:18;;;;;;;;;;;38.30;57.80;;;;;;5091291;28;20338;-82
2022/08/11 08:35:44;;;;;;;;;;;38.20;58.50;;;;;;5091674;28;20012;-83
2022/08/11 08:38:11;;;;;;;;;;;38.40;59.40;;;;;;5090316;28;19912;-83
2022/08/11 08:40:38;;;;;;;;;;;38.70;58.90;;;;;;5090075;28;19977;-82
2022/08/11 08:43:08;;;;;;;;;;;38.90;59.10;;;;;;5094605;28;19958;-82
2022/08/11 08:45:35;;;;;;;;;;;39.00;59.30;;;;;;5091716;28;19975;-82
2022/08/11 08:48:03;;;;;;;;;;;39.40;59.50;;;;;;5090960;28;19912;-83
2022/08/11 08:53:17;;;;;;;;;;;39.80;59.50;;;;;;5094772;28;19915;-82
2022/08/11 08:55:44;;;;;;;;;;;39.90;59.70;;;;;;5091747;28;19952;-82
2022/08/11 08:58:10;;;;;;;;;;;40.00;59.80;;;;;;5088313;28;19916;-82
2022/08/11 09:00:38;;;;;;;;;;;40.30;59.50;;;;;;5087990;28;19920;-82
2022/08/11 09:03:04;;;;;;;;;;;40.50;59.40;;;;;;5088545;28;19916;-82
2022/08/11 09:05:29;;;;;;;;;;;40.70;59.40;;;;;;5070557;28;19923;-81
2022/08/11 09:07:56;;;;;;;;;;;40.90;59.30;;;;;;5089041;28;19985;-79
2022/08/11 09:10:23;;;;;;;;;;;41.10;59.20;;;;;;5089290;28;20272;-79
2022/08/11 09:12:49;;;;;;;;;;;41.10;59.00;;;;;;5089636;28;19922;-78
2022/08/11 09:15:16;;;;;;;;;;;41.20;58.80;;;;;;5089053;28;19948;-79
2022/08/11 09:17:43;;;;;;;;;;;41.30;58.80;;;;;;5089489;28;19992;-79
2022/08/11 09:20:20;;;;;;;;;;;41.20;58.60;;;;;;5089424;28;19956;-79
2022/08/11 09:28:17;;;;;;;;;;;41.40;58.70;;;;;;5086582;28;19915;-78
2022/08/11 09:30:44;;;;;;;;;;;41.70;58.80;;;;;;5082391;28;19935;-79
2022/08/11 09:33:12;;;;;;;;;;;41.90;58.80;;;;;;5081009;28;19908;-79
2022/08/11 09:35:39;;;;;;;;;;;41.90;58.90;;;;;;5082524;28;19931;-79
2022/08/11 09:40:50;;;;;;;;;;;41.90;59.30;;;;;;5080767;28;19931;-79
2022/08/11 09:46:01;;;;;;;;;;;42.10;59.90;;;;;;5094019;28;20284;-78
2022/08/11 09:48:28;;;;;;;;;;;42.50;60.00;;;;;;5093775;28;19908;-79
2022/08/11 09:50:56;;;;;;;;;;;42.80;59.70;;;;;;5093391;28;19912;-78
2022/08/11 09:53:24;;;;;;;;;;;43.00;59.30;;;;;;5093723;28;19908;-79
2022/08/11 09:55:49;;;;;;;;;;;43.00;58.90;;;;;;5091853;28;19912;-79
2022/08/11 09:58:16;;;;;;;;;;;42.80;59.30;;;;;;5080433;28;19972;-79
2022/08/11 10:00:43;;;;;;;;;;;42.90;59.50;;;;;;5083379;28;20344;-79
2022/08/11 10:03:14;;;;;;;;;;;43.00;59.30;;;;;;5084527;28;19908;-77
2022/08/11 10:08:28;;;;;;;;;;;42.70;59.50;;;;;;5079282;28;19958;-79
2022/08/11 10:10:54;;;;;;;;;;;42.70;60.00;;;;;;5086977;28;19916;-80
2022/08/11 10:13:21;;;;;;;;;;;43.00;59.90;;;;;;5072357;28;19924;-79
2022/08/11 10:15:47;;;;;;;;;;;43.30;59.80;;;;;;5080243;28;19947;-79
2022/08/11 10:21:00;;;;;;;;;;;43.70;60.00;;;;;;5076659;28;19973;-79
2022/08/11 10:28:59;;;;;;;;;;;43.60;60.60;;;;;;5077639;28;19927;-76
2022/08/11 10:34:10;;;;;;;;;;;44.00;60.50;;;;;;5077390;28;20033;-74
2022/08/11 10:37:01;;;;;;;;;;;44.20;60.40;;;;;;5080741;28;20427;-75
2022/08/11 10:39:27;;;;;;;;;;;44.00;60.30;;;;;;5084908;28;20015;-75
2022/08/11 10:44:42;;;;;;;;;;;43.90;60.60;;;;;;5081109;28;19919;-75
2022/08/11 11:00:57;;;;;;;;;;;44.20;60.00;;;;;;5083286;28;19970;-80
2022/08/11 11:03:27;;;;;;;;;;;44.00;60.30;;;;;;5090455;28;20373;-80
2022/08/11 11:05:54;;;;;;;;;;;43.90;60.50;;;;;;5086233;28;19934;-80
2022/08/11 11:11:09;;;;;;;;;;;44.10;60.90;;;;;;5085849;28;19919;-81
2022/08/11 11:19:10;;;;;;;;;;;44.20;60.40;;;;;;5071229;28;20307;-78
2022/08/11 11:21:37;;;;;;;;;;;43.90;60.50;;;;;;5091824;28;19916;-80
2022/08/11 11:24:12;;;;;;;;;;;43.90;60.90;;;;;;5091611;28;20356;-80
2022/08/11 11:26:40;;;;;;;;;;;43.90;61.00;;;;;;5091483;28;19996;-80
2022/08/11 11:29:19;;;;;;;;;;;43.90;61.00;;;;;;5091244;28;20322;-80
2022/08/11 11:31:44;;;;;;;;;;;44.10;60.90;;;;;;5090966;28;19908;-80
2022/08/11 11:34:16;;;;;;;;;;;44.30;60.80;;;;;;5089654;28;19962;-80
2022/08/11 11:36:55;;;;;;;;;;;44.60;60.70;;;;;;5090105;28;20245;-80
2022/08/11 11:39:22;;;;;;;;;;;44.70;60.50;;;;;;5091207;28;19957;-79
2022/08/11 11:41:50;;;;;;;;;;;44.90;60.70;;;;;;5091074;28;19962;-80
2022/08/11 11:44:16;;;;;;;;;;;45.10;60.50;;;;;;5089827;28;19909;-80
2022/08/11 11:46:44;;;;;;;;;;;45.00;60.40;;;;;;5091074;28;19995;-81
2022/08/11 11:49:10;;;;;;;;;;;45.00;60.80;;;;;;5090594;28;19912;-80
2022/08/11 11:51:36;;;;;;;;;;;44.80;60.80;;;;;;5090049;28;19918;-80
2022/08/11 11:54:03;;;;;;;;;;;44.60;60.70;;;;;;5089833;28;19912;-80
2022/08/11 11:56:30;;;;;;;;;;;44.40;60.50;;;;;;5088256;28;19996;-80
2022/08/11 12:01:54;;;;;;;;;;;44.10;60.50;;;;;;5065968;28;19912;-79
2022/08/11 12:04:21;;;;;;;;;;;44.00;60.40;;;;;;5090336;28;19923;-80
2022/08/11 12:06:47;;;;;;;;;;;43.80;60.30;;;;;;5090125;28;19912;-80
2022/08/11 12:09:22;;;;;;;;;;;43.70;60.40;;;;;;5089897;28;19922;-78
2022/08/11 12:14:32;;;;;;;;;;;43.70;60.60;;;;;;5089773;28;19926;-79
2022/08/11 12:16:57;;;;;;;;;;;43.90;60.30;;;;;;5090036;28;19912;-81
2022/08/11 12:19:24;;;;;;;;;;;44.00;59.90;;;;;;5088730;28;19966;-80
2022/08/11 12:27:20;;;;;;;;;;;43.10;60.20;;;;;;5092152;28;20283;-79
2022/08/11 12:29:56;;;;;;;;;;;42.70;60.50;;;;;;5092261;28;19966;-80
2022/08/11 12:32:24;;;;;;;;;;;42.40;60.20;;;;;;5092709;28;19934;-81
2022/08/11 12:34:50;;;;;;;;;;;42.10;60.00;;;;;;5094215;28;19916;-80
2022/08/11 12:37:19;;;;;;;;;;;41.80;59.80;;;;;;5093706;28;20453;-79
2022/08/11 12:45:26;;;;;;;;;;;41.80;60.20;;;;;;5092972;28;19934;-80
2022/08/11 12:53:27;;;;;;;;;;;41.40;59.80;;;;;;5091749;28;19915;-78
2022/08/11 12:58:45;;;;;;;;;;;41.10;60.30;;;;;;5090519;28;19954;-78
2022/08/11 13:06:40;;;;;;;;;;;40.50;60.00;;;;;;5092021;28;20391;-80
2022/08/11 13:09:06;;;;;;;;;;;40.20;60.00;;;;;;5090250;28;19908;-80
2022/08/11 13:14:16;;;;;;;;;;;39.80;60.30;;;;;;5091393;28;19951;-77
2022/08/11 13:19:27;;;;;;;;;;;39.40;60.70;;;;;;5089778;28;19966;-81
2022/08/11 13:21:53;;;;;;;;;;;39.40;60.40;;;;;;5089998;28;19914;-81
2022/08/11 13:24:20;;;;;;;;;;;39.40;60.20;;;;;;5089885;28;19912;-81
2022/08/11 13:26:47;;;;;;;;;;;39.20;60.00;;;;;;5089654;28;19912;-81
2022/08/11 13:29:13;;;;;;;;;;;38.90;60.00;;;;;;5088627;28;19912;-81
2022/08/11 13:31:41;;;;;;;;;;;38.50;59.90;;;;;;5089214;28;19912;-81
2022/08/11 13:34:07;;;;;;;;;;;37.90;60.00;;;;;;5089352;28;19998;-80
2022/08/11 13:36:34;;;;;;;;;;;37.10;60.00;;;;;;5089893;28;19973;-81
2022/08/11 13:39:01;;;;;;;;;;;36.50;59.70;;;;;;5089564;28;19916;-81
2022/08/11 13:41:37;;;;;;;;;;;35.90;59.40;;;;;;5088879;28;20325;-80
2022/08/11 13:44:07;;;;;;;;;;;35.30;59.30;;;;;;5087154;28;19912;-80
2022/08/11 13:46:33;;;;;;;;;;;34.60;59.00;;;;;;5088519;28;19912;-80
2022/08/11 13:48:59;;;;;;;;;;;34.00;59.30;;;;;;5087829;28;19915;-80
2022/08/11 13:51:32;;;;;;;;;;;33.70;59.90;;;;;;5089320;28;19921;-81
2022/08/11 13:54:09;;;;;;;;;;;33.50;59.20;;;;;;5089757;28;19931;-80
2022/08/11 13:56:35;;;;;;;;;;;33.20;58.80;;;;;;5089072;28;19908;-80
2022/08/11 13:59:02;;;;;;;;;;;33.10;58.90;;;;;;5088304;28;19912;-80
2022/08/11 14:01:30;;;;;;;;;;;32.90;58.90;;;;;;5068960;28;20380;-79
2022/08/11 14:04:02;;;;;;;;;;;32.70;58.70;;;;;;5070339;28;20300;-80
2022/08/11 14:06:28;;;;;;;;;;;32.60;58.60;;;;;;5069956;28;20023;-81
2022/08/11 14:08:54;;;;;;;;;;;32.50;58.50;;;;;;5051489;28;19950;-79
2022/08/11 14:14:05;;;;;;;;;;;32.40;58.10;;;;;;5068817;28;19919;-81
2022/08/11 14:16:34;;;;;;;;;;;32.30;57.90;;;;;;5066409;28;19923;-78
2022/08/11 14:19:03;;;;;;;;;;;32.20;57.80;;;;;;5068842;28;19915;-81
2022/08/11 14:24:16;;;;;;;;;;;31.90;57.80;;;;;;5068640;28;20311;-80
2022/08/11 14:26:43;;;;;;;;;;;31.80;57.60;;;;;;5067491;28;20119;-81
2022/08/11 14:29:11;;;;;;;;;;;31.70;57.50;;;;;;5068083;28;19908;-81
2022/08/11 14:31:38;;;;;;;;;;;31.60;57.40;;;;;;5070882;28;20026;-81
2022/08/11 14:34:06;;;;;;;;;;;31.60;58.10;;;;;;5071183;28;19944;-81
2022/08/11 14:36:39;;;;;;;;;;;31.50;57.40;;;;;;5070408;28;19909;-81
2022/08/11 14:39:07;;;;;;;;;;;31.50;57.40;;;;;;5072418;28;19919;-82
2022/08/11 14:47:04;;;;;;;;;;;31.60;57.00;;;;;;5072313;28;19982;-81
2022/08/11 14:49:39;;;;;;;;;;;31.50;57.00;;;;;;5071968;28;19912;-81
2022/08/11 14:52:09;;;;;;;;;;;31.40;57.00;;;;;;5072111;28;20379;-80
2022/08/11 14:57:20;;;;;;;;;;;31.30;56.90;;;;;;5071593;28;19995;-81
2022/08/11 14:59:47;;;;;;;;;;;31.20;56.90;;;;;;5071526;28;19919;-79
2022/08/11 15:04:58;;;;;;;;;;;31.20;57.00;;;;;;5084907;28;19939;-80
2022/08/11 15:07:29;;;;;;;;;;;31.20;56.90;;;;;;5080467;28;19958;-77
2022/08/11 15:09:56;;;;;;;;;;;31.10;56.80;;;;;;5071633;28;20053;-81
2022/08/11 15:12:22;;;;;;;;;;;31.00;56.80;;;;;;5073223;28;20432;-81
2022/08/11 15:17:33;;;;;;;;;;;30.90;56.70;;;;;;5071663;28;19977;-81
2022/08/11 15:25:42;;;;;;;;;;;30.80;56.50;;;;;;5071577;28;20001;-80
2022/08/11 15:39:15;;;;;;;;;;;30.60;56.40;;;;;;5070462;28;19935;-82
2022/08/11 15:47:17;;;;;;;;;;;30.60;56.20;;;;;;5071635;28;19927;-82
2022/08/11 15:49:44;;;;;;;;;;;30.60;56.20;;;;;;5086825;28;20448;-81
2022/08/11 15:52:12;;;;;;;;;;;30.50;56.30;;;;;;5071803;28;19919;-82
2022/08/11 15:54:40;;;;;;;;;;;30.40;56.20;;;;;;5073204;28;19916;-81
2022/08/11 15:57:06;;;;;;;;;;;30.30;56.30;;;;;;5071890;28;20429;-81
2022/08/11 16:05:07;;;;;;;;;;;30.30;56.00;;;;;;5070843;28;19915;-81
2022/08/11 16:07:34;;;;;;;;;;;30.30;56.00;;;;;;5072631;28;19919;-80
2022/08/11 16:10:08;;;;;;;;;;;30.20;56.00;;;;;;5075996;28;19912;-81
2022/08/11 16:12:36;;;;;;;;;;;30.20;56.10;;;;;;5090777;28;19908;-80
2022/08/11 16:17:49;;;;;;;;;;;30.10;56.20;;;;;;5078184;28;19919;-82
2022/08/11 16:20:16;;;;;;;;;;;30.00;56.10;;;;;;5088562;28;20378;-80
2022/08/11 16:22:45;;;;;;;;;;;29.90;56.20;;;;;;5092101;28;19989;-81
2022/08/11 16:25:22;;;;;;;;;;;29.90;56.20;;;;;;5086278;28;19909;-80
2022/08/11 16:28:02;;;;;;;;;;;29.80;56.10;;;;;;5073558;28;20046;-81
2022/08/11 16:30:28;;;;;;;;;;;29.70;56.10;;;;;;5071971;28;20090;-80
2022/08/11 16:32:54;;;;;;;;;;;29.70;56.10;;;;;;5078943;28;20004;-81
2022/08/11 16:40:51;;;;;;;;;;;29.80;55.80;;;;;;5069546;28;19979;-81
2022/08/11 16:48:48;;;;;;;;;;;29.60;55.80;;;;;;5070239;28;19920;-80
2022/08/11 16:51:14;;;;;;;;;;;29.50;55.70;;;;;;5068962;28;19965;-80
2022/08/11 16:53:43;;;;;;;;;;;29.40;55.80;;;;;;5068810;28;19936;-79
2022/08/11 16:56:10;;;;;;;;;;;29.40;55.80;;;;;;5071165;28;19909;-77
2022/08/11 17:01:23;;;;;;;;;;;29.30;55.60;;;;;;5071755;28;20090;-78
2022/08/11 17:14:56;;;;;;;;;;;29.20;55.60;;;;;;5069132;28;19974;-79
2022/08/11 17:17:48;;;;;;;;;;;29.20;55.60;;;;;;5069875;28;19919;-79
2022/08/11 17:20:14;;;;;;;;;;;29.10;55.70;;;;;;5071772;28;19909;-79
2022/08/11 17:25:27;;;;;;;;;;;28.90;55.70;;;;;;5085666;28;19939;-78
2022/08/11 17:27:53;;;;;;;;;;;28.90;55.60;;;;;;5092385;28;19954;-78
2022/08/11 17:30:19;;;;;;;;;;;28.90;55.50;;;;;;5090834;28;20329;-78
2022/08/11 17:35:39;;;;;;;;;;;28.80;55.50;;;;;;5076165;28;19935;-82
2022/08/11 17:38:15;;;;;;;;;;;28.70;55.60;;;;;;5093140;28;20046;-81
2022/08/11 17:48:24;;;;;;;;;;;28.50;55.60;;;;;;5095779;28;19927;-82
2022/08/11 17:49:02;;;;;;;;;;;28.40;55.60;;;;;;5096304;28;20291;-82
2022/08/11 17:59:50;;;;;;;;;;;28.10;55.50;;;;;;5098805;28;19923;-83
2022/08/11 18:05:19;;;;;;;;;;;28.00;55.60;;;;;;5108152;28;19939;-83
